Time;durP1;ratioP1;P1;durP2;ratioP2;P2;SDS_P1;SDS_P2;PMS_P1;PMS_P2;Temp;Humidity;BMP_temperature;BMP_pressure;BME280_temperature;BME280_humidity;BME280_pressure;Samples;Min_cycle;Max_cycle;Signal;HPM_P1;HPM_P2
2023/08/10 00:00:54;;;;;;;9.57;1.70;;;15.80;99.90;;;;;;6161143;23;20024;-76
2023/08/10 00:03:19;;;;;;;11.40;1.70;;;15.80;99.90;;;;;;6187706;23;20004;-77
2023/08/10 00:05:45;;;;;;;8.40;2.17;;;15.80;99.90;;;;;;6161064;23;20353;-77
2023/08/10 00:08:11;;;;;;;9.73;2.05;;;15.70;99.90;;;;;;6160776;23;20051;-77
2023/08/10 00:10:37;;;;;;;8.40;1.98;;;15.70;99.90;;;;;;6160860;23;20020;-77
2023/08/10 00:13:03;;;;;;;5.90;1.85;;;15.70;99.90;;;;;;6160919;23;20353;-77
2023/08/10 00:15:29;;;;;;;7.57;1.70;;;15.60;99.90;;;;;;6160835;23;20457;-77
2023/08/10 00:17:55;;;;;;;7.45;2.05;;;15.60;99.90;;;;;;6160829;23;20397;-77
2023/08/10 00:20:21;;;;;;;8.10;1.70;;;15.60;99.90;;;;;;6187615;23;20087;-77
2023/08/10 00:22:46;;;;;;;9.65;1.90;;;15.70;99.90;;;;;;6160898;23;20366;-77
2023/08/10 00:25:12;;;;;;;12.90;1.90;;;15.70;99.90;;;;;;6187465;23;20024;-77
2023/08/10 00:27:38;;;;;;;7.15;1.65;;;15.70;99.90;;;;;;6187175;23;20075;-77
2023/08/10 00:30:08;;;;;;;7.55;1.67;;;15.70;99.90;;;;;;6160433;23;20009;-77
2023/08/10 00:32:33;;;;;;;10.52;1.63;;;15.60;99.90;;;;;;6160660;23;20047;-77
2023/08/10 00:34:59;;;;;;;7.85;1.42;;;15.60;99.90;;;;;;6160713;23;20437;-77
2023/08/10 00:37:25;;;;;;;7.78;1.90;;;15.60;99.90;;;;;;6187431;23;20021;-77
2023/08/10 00:39:51;;;;;;;8.07;2.35;;;15.60;99.90;;;;;;6160542;23;20024;-77
2023/08/10 00:42:17;;;;;;;9.02;2.25;;;15.60;99.90;;;;;;6160560;23;20067;-77
2023/08/10 00:44:45;;;;;;;6.25;1.58;;;15.60;99.90;;;;;;6160650;23;20025;-77
2023/08/10 00:47:11;;;;;;;9.05;1.65;;;15.60;99.90;;;;;;6186837;23;20329;-77
2023/08/10 00:49:37;;;;;;;8.15;2.08;;;15.60;99.90;;;;;;6160369;23;20020;-77
2023/08/10 00:52:03;;;;;;;5.10;1.30;;;15.60;99.90;;;;;;6160430;23;20021;-77
2023/08/10 00:54:29;;;;;;;7.82;1.88;;;15.60;99.90;;;;;;6160586;23;20021;-77
2023/08/10 00:56:55;;;;;;;10.45;2.10;;;15.60;99.90;;;;;;6160531;23;20017;-77
2023/08/10 00:59:21;;;;;;;5.38;1.83;;;15.60;99.90;;;;;;6160592;23;20092;-76
2023/08/10 01:01:46;;;;;;;5.82;1.55;;;15.60;99.90;;;;;;6186782;23;20465;-77
2023/08/10 01:04:12;;;;;;;7.05;1.70;;;15.60;99.90;;;;;;6160416;23;20024;-77
2023/08/10 01:06:50;;;;;;;7.82;1.90;;;15.60;99.90;;;;;;6160462;23;20498;-77
2023/08/10 01:09:26;;;;;;;6.18;1.35;;;15.60;99.90;;;;;;6160493;23;20017;-77
2023/08/10 01:12:13;;;;;;;11.48;2.20;;;15.60;99.90;;;;;;6160309;23;20024;-77
2023/08/10 01:14:43;;;;;;;9.88;2.03;;;15.60;99.90;;;;;;6187125;23;20123;-77
2023/08/10 01:17:20;;;;;;;12.45;1.90;;;15.50;99.90;;;;;;6160367;23;20024;-77
2023/08/10 01:19:48;;;;;;;7.93;1.67;;;15.60;99.90;;;;;;6186331;23;20403;-77
2023/08/10 01:22:24;;;;;;;8.25;1.48;;;15.50;99.90;;;;;;6160142;23;20111;-77
2023/08/10 01:25:09;;;;;;;7.70;1.40;;;15.50;99.90;;;;;;6186970;23;20032;-77
2023/08/10 01:27:35;;;;;;;9.60;2.33;;;15.50;99.90;;;;;;6186870;23;20013;-77
2023/08/10 01:30:04;;;;;;;10.30;1.80;;;15.50;99.90;;;;;;6186764;23;20083;-77
2023/08/10 01:32:33;;;;;;;5.38;1.45;;;15.40;99.90;;;;;;6186440;23;20140;-77
2023/08/10 01:35:00;;;;;;;8.60;1.50;;;15.30;99.90;;;;;;6158618;23;20463;-77
2023/08/10 01:37:26;;;;;;;3.92;1.25;;;15.30;99.90;;;;;;6186466;23;20028;-77
2023/08/10 01:39:53;;;;;;;7.40;1.65;;;15.20;99.90;;;;;;6186423;23;20021;-77
2023/08/10 01:42:19;;;;;;;5.25;1.70;;;15.20;99.90;;;;;;6160067;23;20087;-77
2023/08/10 01:44:45;;;;;;;10.52;2.25;;;15.10;99.90;;;;;;6186480;23;20525;-77
2023/08/10 01:47:36;;;;;;;9.90;2.05;;;15.00;99.90;;;;;;6186358;23;20048;-77
2023/08/10 01:50:06;;;;;;;6.82;2.00;;;15.00;99.90;;;;;;6186649;23;20013;-76
2023/08/10 01:52:37;;;;;;;5.85;1.70;;;14.90;99.90;;;;;;6186768;23;20028;-77
2023/08/10 01:55:05;;;;;;;7.32;2.03;;;14.80;99.90;;;;;;6159986;23;20013;-77
2023/08/10 01:57:31;;;;;;;6.03;1.75;;;14.80;99.90;;;;;;6159958;23;20107;-77
2023/08/10 01:59:57;;;;;;;8.73;2.22;;;14.80;99.90;;;;;;6159959;23;20072;-77
2023/08/10 02:02:23;;;;;;;5.43;1.65;;;14.70;99.90;;;;;;6184670;23;20092;-77
2023/08/10 02:04:49;;;;;;;7.57;2.22;;;14.70;99.90;;;;;;6159818;23;20044;-77
2023/08/10 02:07:23;;;;;;;7.47;1.90;;;14.70;99.90;;;;;;6186528;23;20093;-77
2023/08/10 02:09:49;;;;;;;6.13;1.95;;;14.70;99.90;;;;;;6186579;23;20021;-77
2023/08/10 02:12:14;;;;;;;7.82;1.92;;;14.70;99.90;;;;;;6186400;23;20071;-77
2023/08/10 02:14:40;;;;;;;7.85;2.53;;;14.70;99.90;;;;;;6186407;23;20021;-77
2023/08/10 02:17:05;;;;;;;10.38;2.50;;;14.70;99.90;;;;;;6159721;23;20021;-77
2023/08/10 02:19:31;;;;;;;7.43;2.35;;;14.70;99.90;;;;;;6186205;23;20349;-77
2023/08/10 02:21:57;;;;;;;7.82;2.50;;;14.70;99.90;;;;;;6186959;23;20029;-77
2023/08/10 02:24:25;;;;;;;9.18;2.05;;;14.70;99.90;;;;;;6186470;23;20079;-77
2023/08/10 02:26:51;;;;;;;9.52;3.33;;;14.70;99.90;;;;;;6186310;23;20093;-77
2023/08/10 02:29:16;;;;;;;9.02;2.95;;;14.70;99.90;;;;;;6186451;23;20387;-77
2023/08/10 02:31:43;;;;;;;5.97;2.50;;;14.70;99.90;;;;;;6159211;23;20445;-77
2023/08/10 02:34:08;;;;;;;7.75;2.25;;;14.70;99.90;;;;;;6159602;23;20021;-77
2023/08/10 02:36:34;;;;;;;5.15;2.10;;;14.70;99.90;;;;;;6159784;23;20029;-77
2023/08/10 02:39:01;;;;;;;6.20;2.25;;;14.70;99.90;;;;;;6186270;23;20013;-77
2023/08/10 02:41:27;;;;;;;4.55;2.33;;;14.70;99.90;;;;;;6159582;23;20025;-77
2023/08/10 02:43:53;;;;;;;7.60;2.13;;;14.70;99.90;;;;;;6159535;23;20387;-77
2023/08/10 02:46:19;;;;;;;7.55;2.20;;;14.70;99.90;;;;;;6186190;23;20448;-77
2023/08/10 02:48:44;;;;;;;6.40;1.98;;;14.70;99.90;;;;;;6186203;23;20093;-77
2023/08/10 02:51:10;;;;;;;7.97;2.08;;;14.60;99.90;;;;;;6185680;23;20053;-77
2023/08/10 02:53:36;;;;;;;7.10;2.10;;;14.70;99.90;;;;;;6186236;23;20069;-77
2023/08/10 02:56:01;;;;;;;11.35;2.60;;;14.70;99.90;;;;;;6159576;23;20564;-77
2023/08/10 02:58:28;;;;;;;6.82;2.28;;;14.70;99.90;;;;;;6186256;23;20017;-77
2023/08/10 03:00:54;;;;;;;6.68;2.28;;;14.60;99.90;;;;;;6186153;23;20013;-77
2023/08/10 03:03:20;;;;;;;8.20;2.08;;;14.70;99.90;;;;;;6186209;23;20073;-77
2023/08/10 03:05:45;;;;;;;7.22;2.10;;;14.60;99.90;;;;;;6185842;23;20025;-77
2023/08/10 03:08:11;;;;;;;6.70;1.90;;;14.70;99.90;;;;;;6159436;23;20013;-77
2023/08/10 03:10:37;;;;;;;5.43;2.30;;;14.70;99.90;;;;;;6185685;23;20017;-77
2023/08/10 03:13:04;;;;;;;6.78;2.92;;;14.70;99.90;;;;;;6186049;23;20433;-77
2023/08/10 03:15:30;;;;;;;6.82;3.05;;;14.70;99.90;;;;;;6186125;23;20088;-77
2023/08/10 03:17:56;;;;;;;9.13;2.47;;;14.70;99.90;;;;;;6186104;23;20045;-77
2023/08/10 03:20:21;;;;;;;9.50;2.20;;;14.70;99.90;;;;;;6186109;23;20024;-77
2023/08/10 03:22:47;;;;;;;8.70;2.33;;;14.70;99.90;;;;;;6186063;23;20013;-77
2023/08/10 03:25:14;;;;;;;4.88;2.17;;;14.70;99.90;;;;;;6159452;23;20096;-77
2023/08/10 03:27:40;;;;;;;8.30;2.33;;;14.70;99.90;;;;;;6159366;23;20052;-78
2023/08/10 03:30:07;;;;;;;6.05;2.35;;;14.70;99.90;;;;;;6159321;23;20025;-77
2023/08/10 03:32:33;;;;;;;6.63;2.50;;;14.70;99.90;;;;;;6159627;23;20017;-77
2023/08/10 03:34:59;;;;;;;11.15;3.15;;;14.70;99.90;;;;;;6159369;23;20024;-76
2023/08/10 03:37:25;;;;;;;6.03;2.55;;;14.70;99.90;;;;;;6185986;23;20012;-77
2023/08/10 03:39:51;;;;;;;10.32;3.13;;;14.70;99.90;;;;;;6159140;23;20025;-78
2023/08/10 03:42:17;;;;;;;8.52;2.60;;;14.70;99.90;;;;;;6159457;23;20028;-77
2023/08/10 03:44:43;;;;;;;6.68;2.65;;;14.70;99.90;;;;;;6187417;23;20140;-77
2023/08/10 03:47:08;;;;;;;6.85;2.63;;;14.70;99.90;;;;;;6161157;23;20025;-77
2023/08/10 03:49:34;;;;;;;6.78;2.30;;;14.70;99.90;;;;;;6161122;23;20345;-77
2023/08/10 03:52:02;;;;;;;5.55;2.42;;;14.70;99.90;;;;;;6161008;23;20021;-77
2023/08/10 03:54:29;;;;;;;8.18;2.80;;;14.70;99.90;;;;;;6161096;23;20017;-77
2023/08/10 03:56:55;;;;;;;7.68;3.08;;;14.70;99.90;;;;;;6161081;23;20017;-77
2023/08/10 03:59:21;;;;;;;7.78;2.92;;;14.70;99.90;;;;;;6187291;23;20082;-77
2023/08/10 04:01:49;;;;;;;6.47;2.78;;;14.70;99.90;;;;;;6160784;23;20013;-77
2023/08/10 04:04:15;;;;;;;7.40;2.92;;;14.70;99.90;;;;;;6159464;23;20028;-76
2023/08/10 04:06:40;;;;;;;8.70;3.13;;;14.70;99.90;;;;;;6159627;23;20013;-77
2023/08/10 04:09:06;;;;;;;7.68;2.95;;;14.70;99.90;;;;;;6160842;23;20016;-77
2023/08/10 04:11:32;;;;;;;9.60;3.17;;;14.70;99.90;;;;;;6161078;23;20025;-77
2023/08/10 04:13:58;;;;;;;8.32;2.72;;;14.70;99.90;;;;;;6187441;23;20044;-77
2023/08/10 04:16:23;;;;;;;8.50;3.25;;;14.70;99.90;;;;;;6187402;23;20028;-77
2023/08/10 04:18:49;;;;;;;7.88;2.78;;;14.70;99.90;;;;;;6160809;23;20017;-77
2023/08/10 04:21:15;;;;;;;9.52;3.33;;;14.70;99.90;;;;;;6160815;23;20021;-77
2023/08/10 04:23:41;;;;;;;5.97;3.00;;;14.70;99.90;;;;;;6187290;23;20053;-77
2023/08/10 04:26:07;;;;;;;7.13;3.30;;;14.70;99.90;;;;;;6187446;23;20028;-77
2023/08/10 04:28:33;;;;;;;10.38;3.10;;;14.70;99.90;;;;;;6187297;23;20063;-77
2023/08/10 04:30:59;;;;;;;8.63;3.33;;;14.70;99.90;;;;;;6160556;23;20021;-77
2023/08/10 04:33:24;;;;;;;9.82;3.30;;;14.70;99.90;;;;;;6187030;23;20096;-77
2023/08/10 04:35:51;;;;;;;8.65;3.60;;;14.80;99.90;;;;;;6160613;23;20013;-77
2023/08/10 04:38:16;;;;;;;9.13;3.08;;;14.80;99.90;;;;;;6160623;23;20021;-77
2023/08/10 04:40:43;;;;;;;8.20;3.47;;;14.80;99.90;;;;;;6160376;23;20017;-77
2023/08/10 04:43:08;;;;;;;10.75;3.63;;;14.70;99.90;;;;;;6160626;23;20075;-77
2023/08/10 04:45:34;;;;;;;7.93;3.25;;;14.80;99.90;;;;;;6160670;23;20024;-77
2023/08/10 04:48:00;;;;;;;11.55;4.35;;;14.70;99.90;;;;;;6160460;23;20338;-77
2023/08/10 04:50:25;;;;;;;9.60;3.05;;;14.70;99.90;;;;;;6187067;23;20013;-77
2023/08/10 04:52:51;;;;;;;11.85;3.70;;;14.70;99.90;;;;;;6160520;23;20017;-77
2023/08/10 04:55:18;;;;;;;10.55;3.60;;;14.80;99.90;;;;;;6160003;23;20017;-77
2023/08/10 04:57:43;;;;;;;11.13;3.88;;;14.70;99.90;;;;;;6160481;23;20021;-77
2023/08/10 05:00:13;;;;;;;9.98;3.25;;;14.80;99.90;;;;;;6160515;23;20012;-77
2023/08/10 05:02:39;;;;;;;10.00;3.67;;;14.80;99.90;;;;;;6186714;23;20386;-77
2023/08/10 05:05:06;;;;;;;7.85;3.58;;;14.80;99.90;;;;;;6160732;23;20070;-77
2023/08/10 05:07:32;;;;;;;7.60;3.17;;;14.80;99.90;;;;;;6186670;23;20341;-77
2023/08/10 05:09:58;;;;;;;8.30;3.58;;;14.80;99.90;;;;;;6186804;23;20445;-77
2023/08/10 05:12:24;;;;;;;7.90;3.10;;;14.80;99.90;;;;;;6160388;23;20021;-77
2023/08/10 05:14:50;;;;;;;6.90;3.38;;;14.80;99.90;;;;;;6160351;23;20013;-77
2023/08/10 05:17:16;;;;;;;8.20;3.67;;;14.90;99.90;;;;;;6187106;23;20091;-77
2023/08/10 05:19:41;;;;;;;12.45;3.63;;;14.90;99.90;;;;;;6160215;23;20380;-77
2023/08/10 05:22:07;;;;;;;6.22;3.10;;;14.90;99.90;;;;;;6160267;23;20051;-77
2023/08/10 05:24:32;;;;;;;9.52;3.97;;;14.90;99.90;;;;;;6160136;23;20349;-77
2023/08/10 05:27:00;;;;;;;9.38;3.65;;;14.90;99.90;;;;;;6160208;23;20036;-77
2023/08/10 05:29:26;;;;;;;8.27;3.70;;;14.90;99.90;;;;;;6186797;23;20088;-77
2023/08/10 05:31:55;;;;;;;7.85;3.92;;;14.90;99.90;;;;;;6159887;23;20021;-77
2023/08/10 05:34:20;;;;;;;11.52;4.00;;;14.90;99.90;;;;;;6186739;23;20019;-77
2023/08/10 05:36:49;;;;;;;10.15;3.55;;;15.00;99.90;;;;;;6186706;23;20028;-77
2023/08/10 05:39:15;;;;;;;10.35;3.17;;;14.90;99.90;;;;;;6186473;23;20345;-78
2023/08/10 05:41:41;;;;;;;9.20;3.47;;;15.00;99.90;;;;;;6185474;23;20125;-78
2023/08/10 05:44:07;;;;;;;6.90;2.80;;;15.00;99.90;;;;;;6159869;23;20032;-77
2023/08/10 05:46:33;;;;;;;10.80;4.15;;;15.00;99.90;;;;;;6159964;23;20088;-77
2023/08/10 05:48:59;;;;;;;8.98;3.65;;;15.10;99.90;;;;;;6186231;23;20108;-77
2023/08/10 05:51:24;;;;;;;7.55;3.20;;;15.20;99.90;;;;;;6186551;23;20044;-78
2023/08/10 05:53:50;;;;;;;8.27;3.20;;;15.20;99.90;;;;;;6159688;23;20021;-77
2023/08/10 05:56:16;;;;;;;6.18;3.15;;;15.40;99.90;;;;;;6186577;23;20021;-77
2023/08/10 05:58:44;;;;;;;8.02;3.00;;;15.40;99.90;;;;;;6186529;23;20074;-77
2023/08/10 06:01:10;;;;;;;9.85;2.75;;;15.50;99.90;;;;;;6159782;23;20052;-78
2023/08/10 06:03:36;;;;;;;9.25;3.30;;;15.70;99.90;;;;;;6186484;23;20075;-77
2023/08/10 06:06:06;;;;;;;8.10;2.85;;;15.80;99.90;;;;;;6159667;23;20017;-77
2023/08/10 06:08:33;;;;;;;8.00;3.42;;;15.90;99.90;;;;;;6159795;23;20021;-77
2023/08/10 06:11:00;;;;;;;12.18;2.83;;;16.00;99.90;;;;;;6158846;23;20079;-76
2023/08/10 06:13:25;;;;;;;7.82;2.28;;;16.10;99.90;;;;;;6159422;23;20017;-76
2023/08/10 06:15:54;;;;;;;10.65;2.78;;;16.30;99.90;;;;;;6185872;23;20017;-76
2023/08/10 06:18:20;;;;;;;9.23;2.83;;;16.50;99.90;;;;;;6185800;23;20107;-82
2023/08/10 06:20:46;;;;;;;7.80;2.53;;;16.70;99.90;;;;;;6159571;23;20017;-78
2023/08/10 06:23:12;;;;;;;8.45;2.55;;;16.80;99.90;;;;;;6185276;23;20528;-76
2023/08/10 06:25:38;;;;;;;8.77;2.00;;;16.90;99.90;;;;;;6159325;23;20044;-78
2023/08/10 06:28:06;;;;;;;5.70;2.20;;;17.10;99.90;;;;;;6158881;23;20468;-78
2023/08/10 06:30:32;;;;;;;9.00;2.42;;;17.20;99.90;;;;;;6159160;23;20017;-80
2023/08/10 06:32:58;;;;;;;7.97;2.35;;;17.40;99.90;;;;;;6159288;23;20472;-79
2023/08/10 06:35:24;;;;;;;6.97;1.90;;;17.40;99.90;;;;;;6158822;23;20043;-81
2023/08/10 06:37:50;;;;;;;9.38;2.50;;;17.50;99.90;;;;;;6185470;23;20505;-76
2023/08/10 06:40:17;;;;;;;8.07;2.20;;;17.70;99.90;;;;;;6159191;23;20040;-77
2023/08/10 06:42:45;;;;;;;6.35;2.10;;;17.80;99.90;;;;;;6159358;23;20025;-76
2023/08/10 06:45:13;;;;;;;7.28;1.77;;;17.90;99.90;;;;;;6159302;23;20430;-76
2023/08/10 06:47:40;;;;;;;6.93;1.98;;;18.00;99.90;;;;;;6185331;23;20021;-79
2023/08/10 06:50:08;;;;;;;9.15;2.03;;;18.10;99.90;;;;;;6157896;23;20017;-77
2023/08/10 06:52:34;;;;;;;6.50;1.90;;;18.20;99.90;;;;;;6159186;23;20319;-78
2023/08/10 06:55:00;;;;;;;6.32;1.63;;;18.30;99.90;;;;;;6184840;23;20021;-78
2023/08/10 06:57:26;;;;;;;5.25;1.83;;;18.40;99.90;;;;;;6182532;23;20100;-77
2023/08/10 06:59:51;;;;;;;7.63;1.60;;;18.50;99.90;;;;;;6157939;23;20021;-78
2023/08/10 07:02:17;;;;;;;5.55;1.60;;;18.60;99.90;;;;;;6158875;23;20076;-79
2023/08/10 07:04:45;;;;;;;6.05;1.83;;;18.70;99.90;;;;;;6158693;23;20028;-78
2023/08/10 07:07:12;;;;;;;4.68;1.92;;;18.90;99.90;;;;;;6159203;23;20017;-78
2023/08/10 07:09:37;;;;;;;6.95;1.63;;;18.70;99.90;;;;;;6184972;23;20096;-78
2023/08/10 07:12:04;;;;;;;8.32;2.50;;;18.80;99.90;;;;;;6158970;23;20044;-78
2023/08/10 07:14:30;;;;;;;8.40;1.88;;;18.90;99.90;;;;;;6185101;23;20450;-78
2023/08/10 07:16:57;;;;;;;7.88;1.70;;;19.00;99.90;;;;;;6159059;23;20028;-78
2023/08/10 07:19:28;;;;;;;6.68;1.90;;;19.00;99.90;;;;;;6159727;23;20342;-79
2023/08/10 07:21:55;;;;;;;9.18;1.75;;;19.10;99.90;;;;;;6187496;23;20064;-79
2023/08/10 07:24:25;;;;;;;6.90;2.00;;;19.20;99.90;;;;;;6187046;23;20100;-79
2023/08/10 07:26:54;;;;;;;5.00;1.90;;;19.20;99.90;;;;;;6160696;23;20445;-78
2023/08/10 07:29:19;;;;;;;3.78;1.33;;;19.10;99.90;;;;;;6160946;23;20025;-78
2023/08/10 07:31:46;;;;;;;8.20;1.50;;;19.10;99.90;;;;;;6160925;23;20020;-79
2023/08/10 07:34:12;;;;;;;6.95;1.80;;;19.00;99.90;;;;;;6160634;23;20013;-78
2023/08/10 07:36:40;;;;;;;4.13;1.30;;;18.90;99.90;;;;;;6187255;23;20318;-78
2023/08/10 07:39:07;;;;;;;6.30;1.38;;;18.90;99.90;;;;;;6187379;23;20457;-79
2023/08/10 07:41:32;;;;;;;5.82;1.50;;;18.80;99.90;;;;;;6160929;23;20056;-77
2023/08/10 07:43:58;;;;;;;4.70;1.52;;;18.80;99.90;;;;;;6160919;23;20020;-81
2023/08/10 07:46:24;;;;;;;6.07;1.52;;;18.70;99.90;;;;;;6159334;23;20442;-79
2023/08/10 07:48:50;;;;;;;4.10;1.40;;;18.50;99.90;;;;;;6160418;23;20021;-80
2023/08/10 07:51:18;;;;;;;3.97;1.42;;;18.40;99.90;;;;;;6159235;23;20031;-79
2023/08/10 07:53:44;;;;;;;5.63;1.60;;;18.40;99.90;;;;;;6160072;23;20124;-79
2023/08/10 07:56:11;;;;;;;7.97;1.55;;;18.40;99.90;;;;;;6186870;23;20106;-79
2023/08/10 07:58:37;;;;;;;6.90;1.38;;;18.30;99.90;;;;;;6160234;23;20017;-79
2023/08/10 08:01:05;;;;;;;6.38;1.20;;;18.30;99.90;;;;;;6160518;23;20020;-79
2023/08/10 08:03:31;;;;;;;4.75;1.50;;;18.20;99.90;;;;;;6160624;23;20021;-79
2023/08/10 08:05:57;;;;;;;7.65;1.60;;;18.20;99.90;;;;;;6160694;23;20068;-79
2023/08/10 08:08:22;;;;;;;7.97;1.77;;;18.10;99.90;;;;;;6160432;23;20055;-79
2023/08/10 08:10:48;;;;;;;4.90;1.10;;;18.10;99.90;;;;;;6160389;23;20070;-79
2023/08/10 08:13:14;;;;;;;4.05;1.25;;;18.10;99.90;;;;;;6160291;23;20020;-79
2023/08/10 08:15:40;;;;;;;5.05;1.20;;;18.20;99.90;;;;;;6160145;23;20023;-79
2023/08/10 08:18:41;;;;;;;5.70;1.10;;;18.10;99.90;;;;;;6187061;23;20013;-79
2023/08/10 08:21:15;;;;;;;3.72;1.42;;;18.20;99.90;;;;;;6160458;23;20017;-77
2023/08/10 08:23:41;;;;;;;6.60;2.03;;;18.20;99.90;;;;;;6186885;23;20020;-77
2023/08/10 08:26:07;;;;;;;3.78;1.23;;;18.20;99.90;;;;;;6186791;23;20076;-77
2023/08/10 08:28:33;;;;;;;5.40;1.50;;;18.20;99.90;;;;;;6185651;23;20429;-77
2023/08/10 08:30:58;;;;;;;6.28;1.70;;;18.30;99.90;;;;;;6160352;23;20155;-77
2023/08/10 08:33:24;;;;;;;4.20;1.45;;;18.20;99.90;;;;;;6187042;23;20013;-77
2023/08/10 08:35:50;;;;;;;4.47;1.55;;;18.20;99.90;;;;;;6187066;23;20021;-76
2023/08/10 08:38:20;;;;;;;5.40;1.40;;;18.30;99.90;;;;;;6187125;23;20089;-76
2023/08/10 08:40:50;;;;;;;4.28;1.42;;;18.20;99.90;;;;;;6160069;23;20021;-76
2023/08/10 08:43:17;;;;;;;5.53;1.02;;;18.20;99.90;;;;;;6160271;23;20057;-78
2023/08/10 08:45:43;;;;;;;4.40;1.35;;;18.20;99.90;;;;;;6160254;23;20017;-76
2023/08/10 08:48:10;;;;;;;4.55;1.40;;;18.20;99.90;;;;;;6160136;23;20025;-77
2023/08/10 08:50:37;;;;;;;4.00;1.15;;;18.20;99.90;;;;;;6185700;23;20079;-79
2023/08/10 08:53:08;;;;;;;7.70;1.67;;;18.30;99.90;;;;;;6159621;23;20067;-79
2023/08/10 08:55:34;;;;;;;8.10;1.73;;;18.30;99.90;;;;;;6160361;23;20017;-79
2023/08/10 08:57:59;;;;;;;6.80;1.50;;;18.20;99.90;;;;;;6160157;23;20021;-79
2023/08/10 09:00:25;;;;;;;5.43;1.40;;;18.30;99.90;;;;;;6159994;23;20013;-79
2023/08/10 09:02:51;;;;;;;6.40;1.50;;;18.40;99.90;;;;;;6160005;23;20397;-79
2023/08/10 09:05:20;;;;;;;7.78;1.70;;;18.30;99.90;;;;;;6160181;23;20017;-79
2023/08/10 09:07:45;;;;;;;4.28;1.70;;;18.30;99.90;;;;;;6160107;23;20049;-79
2023/08/10 09:10:11;;;;;;;5.97;1.58;;;18.30;99.90;;;;;;6160151;23;20025;-79
2023/08/10 09:12:40;;;;;;;5.63;1.20;;;18.30;99.90;;;;;;6160049;23;20098;-78
2023/08/10 09:15:12;;;;;;;6.15;1.30;;;18.40;99.90;;;;;;6158048;23;20080;-77
2023/08/10 09:17:51;;;;;;;6.28;1.30;;;18.40;99.90;;;;;;6157556;23;20079;-79
2023/08/10 09:20:35;;;;;;;3.50;1.20;;;18.40;99.90;;;;;;6158812;23;20099;-77
2023/08/10 09:23:02;;;;;;;4.75;1.17;;;18.40;99.90;;;;;;6185165;23;20104;-79
2023/08/10 09:25:37;;;;;;;5.95;1.70;;;18.50;99.90;;;;;;6158527;23;20467;-79
2023/08/10 09:28:11;;;;;;;6.13;1.27;;;18.40;99.90;;;;;;6159837;23;20013;-78
2023/08/10 09:30:37;;;;;;;5.63;1.33;;;18.50;99.90;;;;;;6186102;23;20430;-75
2023/08/10 09:33:03;;;;;;;7.22;1.27;;;18.40;99.90;;;;;;6158759;23;20044;-77
2023/08/10 09:35:31;;;;;;;3.97;1.20;;;18.50;99.90;;;;;;6186224;23;20021;-77
2023/08/10 09:38:02;;;;;;;3.92;1.20;;;18.50;99.90;;;;;;6159889;23;20442;-76
2023/08/10 09:40:29;;;;;;;3.75;1.00;;;18.50;99.90;;;;;;6159902;23;20024;-78
2023/08/10 09:42:54;;;;;;;4.40;1.40;;;18.60;99.90;;;;;;6159474;23;20017;-77
2023/08/10 09:45:20;;;;;;;4.47;1.33;;;18.60;99.90;;;;;;6158509;23;20390;-78
2023/08/10 09:47:46;;;;;;;9.30;1.30;;;18.60;99.90;;;;;;6158942;23;20021;-79
2023/08/10 09:50:14;;;;;;;5.40;1.08;;;18.80;99.90;;;;;;6158093;23;20476;-78
2023/08/10 09:52:41;;;;;;;8.82;1.40;;;18.70;99.90;;;;;;6156750;23;20025;-78
2023/08/10 09:55:09;;;;;;;7.03;1.60;;;18.70;99.90;;;;;;6159564;23;20036;-78
2023/08/10 09:57:40;;;;;;;5.68;1.30;;;18.70;99.90;;;;;;6186207;23;20017;-79
2023/08/10 10:00:14;;;;;;;7.05;1.92;;;18.70;99.90;;;;;;6159704;23;20107;-79
2023/08/10 10:02:40;;;;;;;3.90;1.10;;;18.80;99.90;;;;;;6185383;23;20025;-77
2023/08/10 10:05:07;;;;;;;6.07;1.50;;;18.90;99.90;;;;;;6158766;23;20021;-77
2023/08/10 10:07:33;;;;;;;6.78;1.77;;;18.90;99.90;;;;;;6185529;23;20013;-77
2023/08/10 10:09:59;;;;;;;4.80;1.55;;;18.90;99.90;;;;;;6159472;23;20013;-77
2023/08/10 10:12:25;;;;;;;5.72;1.23;;;18.90;99.90;;;;;;6185698;23;20460;-77
2023/08/10 10:14:54;;;;;;;4.45;1.63;;;19.00;99.90;;;;;;6186335;23;20021;-77
2023/08/10 10:17:21;;;;;;;5.00;1.30;;;19.00;99.90;;;;;;6185938;23;20025;-77
2023/08/10 10:19:50;;;;;;;5.13;1.33;;;19.10;99.90;;;;;;6185864;23;20021;-77
2023/08/10 10:22:17;;;;;;;5.47;1.65;;;19.00;99.90;;;;;;6158621;23;20064;-78
2023/08/10 10:24:43;;;;;;;9.43;1.67;;;19.20;99.90;;;;;;6159197;23;20020;-77
2023/08/10 10:27:11;;;;;;;5.47;2.42;;;19.10;99.90;;;;;;6185983;23;20059;-79
2023/08/10 10:29:56;;;;;;;5.55;1.40;;;19.10;99.90;;;;;;6186260;23;20021;-79
2023/08/10 10:32:24;;;;;;;5.90;1.40;;;19.20;99.90;;;;;;6160426;23;20021;-79
2023/08/10 10:34:52;;;;;;;3.63;1.55;;;19.40;99.90;;;;;;6186331;23;20377;-79
2023/08/10 10:37:29;;;;;;;8.02;1.70;;;19.30;99.90;;;;;;6185850;23;20091;-78
2023/08/10 10:40:21;;;;;;;3.75;1.65;;;19.40;99.90;;;;;;6159333;23;20013;-78
2023/08/10 10:43:06;;;;;;;5.28;1.48;;;19.30;99.90;;;;;;6159483;23;20028;-79
2023/08/10 10:46:27;;;;;;;5.95;1.83;;;19.50;99.90;;;;;;6185818;23;20317;-79
2023/08/10 10:49:19;;;;;;;7.88;2.10;;;19.50;99.90;;;;;;6159507;23;20021;-78
2023/08/10 10:55:44;;;;;;;4.82;1.45;;;19.70;99.90;;;;;;6186046;23;20100;-78
2023/08/10 10:58:11;;;;;;;4.93;2.08;;;19.60;99.90;;;;;;6186153;23;20102;-79
2023/08/10 11:00:38;;;;;;;5.72;1.63;;;19.60;99.90;;;;;;6159315;23;20438;-79
2023/08/10 11:03:05;;;;;;;5.40;1.70;;;19.60;99.90;;;;;;6186246;23;20024;-79
2023/08/10 11:05:31;;;;;;;6.93;1.70;;;19.70;99.90;;;;;;6186089;23;20043;-79
2023/08/10 11:08:03;;;;;;;6.97;1.65;;;19.80;99.90;;;;;;6185796;23;20025;-79
2023/08/10 11:10:40;;;;;;;7.20;1.67;;;19.80;99.90;;;;;;6153930;23;20449;-78
2023/08/10 11:13:15;;;;;;;5.07;1.70;;;19.70;99.90;;;;;;6159361;23;20017;-78
2023/08/10 11:15:46;;;;;;;7.32;1.67;;;19.80;99.90;;;;;;6186073;23;20013;-79
2023/08/10 11:18:12;;;;;;;5.30;2.00;;;19.70;99.90;;;;;;6185677;23;20017;-79
2023/08/10 11:20:45;;;;;;;5.82;2.33;;;19.70;99.90;;;;;;6186098;23;20043;-79
2023/08/10 11:23:12;;;;;;;8.15;2.05;;;19.60;99.90;;;;;;6185716;23;20532;-78
2023/08/10 11:25:46;;;;;;;7.38;2.00;;;19.60;99.90;;;;;;6159496;23;20024;-79
2023/08/10 11:28:14;;;;;;;5.95;1.63;;;19.60;99.90;;;;;;6184566;23;20445;-79
2023/08/10 11:30:40;;;;;;;4.35;1.38;;;19.60;99.90;;;;;;6159652;23;20092;-79
2023/08/10 11:33:19;;;;;;;5.95;1.50;;;19.80;99.90;;;;;;6159573;23;20053;-78
2023/08/10 11:35:50;;;;;;;6.63;1.85;;;19.80;99.90;;;;;;6159414;23;20080;-79
2023/08/10 11:38:16;;;;;;;3.95;1.52;;;19.80;99.90;;;;;;6185847;23;20025;-79
2023/08/10 11:40:43;;;;;;;5.03;1.75;;;19.80;99.90;;;;;;6185540;23;20055;-79
2023/08/10 11:43:12;;;;;;;5.47;1.60;;;19.90;99.90;;;;;;6186296;23;20017;-78
2023/08/10 11:45:39;;;;;;;7.78;2.05;;;19.90;99.90;;;;;;6159379;23;20028;-79
2023/08/10 11:48:09;;;;;;;5.00;1.52;;;20.00;99.90;;;;;;6159509;23;20017;-79
2023/08/10 11:50:38;;;;;;;6.20;2.10;;;20.00;99.90;;;;;;6185621;23;20021;-79
2023/08/10 11:53:16;;;;;;;7.93;1.90;;;20.00;99.90;;;;;;6159263;23;20034;-79
2023/08/10 11:55:57;;;;;;;6.88;1.85;;;19.90;99.90;;;;;;6185987;23;20017;-78
2023/08/10 11:58:23;;;;;;;6.32;2.35;;;19.90;99.90;;;;;;6159193;23;20375;-78
2023/08/10 12:00:55;;;;;;;6.72;1.67;;;19.80;99.90;;;;;;6185584;23;20021;-79
2023/08/10 12:03:35;;;;;;;8.15;1.70;;;19.80;99.90;;;;;;6185905;23;20076;-79
2023/08/10 12:06:06;;;;;;;4.28;1.70;;;19.80;99.90;;;;;;6183785;23;20025;-80
2023/08/10 12:08:42;;;;;;;5.80;1.88;;;19.90;99.90;;;;;;6186348;23;20053;-80
2023/08/10 12:11:32;;;;;;;4.78;2.00;;;19.90;99.90;;;;;;6112464;23;20063;-80
2023/08/10 12:13:59;;;;;;;5.33;2.00;;;19.90;99.90;;;;;;6186899;23;20017;-80
2023/08/10 12:16:25;;;;;;;5.75;2.10;;;19.80;99.90;;;;;;6160432;23;20256;-79
2023/08/10 12:18:54;;;;;;;5.53;2.58;;;19.80;99.90;;;;;;6187544;23;20028;-80
2023/08/10 12:21:23;;;;;;;7.05;3.03;;;19.70;99.90;;;;;;6160613;23;20101;-80
2023/08/10 12:23:55;;;;;;;7.38;3.45;;;19.70;99.90;;;;;;6187119;23;20056;-80
2023/08/10 12:26:22;;;;;;;9.63;4.40;;;19.50;99.90;;;;;;6160282;23;20397;-80
2023/08/10 12:29:05;;;;;;;7.68;4.88;;;19.40;99.90;;;;;;6160225;23;20017;-80
2023/08/10 12:31:37;;;;;;;9.75;4.40;;;19.40;99.90;;;;;;6187259;23;20075;-80
2023/08/10 12:34:06;;;;;;;7.43;4.17;;;19.30;99.90;;;;;;6186638;23;20088;-80
2023/08/10 12:36:40;;;;;;;7.63;3.60;;;19.30;99.90;;;;;;6186683;23;20341;-81
2023/08/10 12:39:09;;;;;;;6.22;2.88;;;19.40;99.90;;;;;;6186585;23;20027;-80
2023/08/10 12:41:36;;;;;;;4.70;2.90;;;19.50;99.90;;;;;;6186301;23;20373;-79
2023/08/10 12:44:01;;;;;;;8.00;3.22;;;19.50;99.90;;;;;;6160002;23;20017;-80
2023/08/10 12:46:39;;;;;;;6.10;3.47;;;19.50;99.90;;;;;;6186469;23;20060;-79
2023/08/10 12:49:10;;;;;;;7.82;3.35;;;19.30;99.90;;;;;;6160493;23;20013;-79
2023/08/10 12:51:36;;;;;;;6.10;2.70;;;19.30;99.90;;;;;;6185346;23;20333;-79
2023/08/10 12:54:02;;;;;;;6.90;2.65;;;19.30;99.90;;;;;;6186712;23;20518;-79